sensor_id;sensor_type;location;lat;lon;timestamp;P1;durP1;ratioP1;P2;durP2;ratioP2
12373;SDS011;6251;51.762;8.660;2024-02-28T00:09:05;32.30;;;19.20;;
12373;SDS011;6251;51.762;8.660;2024-02-28T02:00:49;36.47;;;19.60;;
12373;SDS011;6251;51.762;8.660;2024-02-28T02:10:52;34.30;;;18.73;;
12373;SDS011;6251;51.762;8.660;2024-02-28T03:52:25;107.77;;;28.67;;
12373;SDS011;6251;51.762;8.660;2024-02-28T05:03:34;59.97;;;26.30;;
12373;SDS011;6251;51.762;8.660;2024-02-28T05:13:35;58.20;;;25.43;;
12373;SDS011;6251;51.762;8.660;2024-02-28T05:23:36;55.67;;;25.23;;
12373;SDS011;6251;51.762;8.660;2024-02-28T05:33:36;55.83;;;24.83;;
12373;SDS011;6251;51.762;8.660;2024-02-28T05:43:37;72.20;;;26.53;;
12373;SDS011;6251;51.762;8.660;2024-02-28T05:53:38;53.73;;;24.37;;
12373;SDS011;6251;51.762;8.660;2024-02-28T06:03:40;52.60;;;23.10;;
12373;SDS011;6251;51.762;8.660;2024-02-28T06:13:41;64.30;;;26.23;;
12373;SDS011;6251;51.762;8.660;2024-02-28T06:23:41;56.00;;;24.73;;
12373;SDS011;6251;51.762;8.660;2024-02-28T06:33:42;105.67;;;30.40;;
12373;SDS011;6251;51.762;8.660;2024-02-28T06:43:44;71.60;;;27.53;;
12373;SDS011;6251;51.762;8.660;2024-02-28T06:53:45;81.27;;;30.27;;
12373;SDS011;6251;51.762;8.660;2024-02-28T07:03:46;74.47;;;29.03;;
12373;SDS011;6251;51.762;8.660;2024-02-28T07:13:47;89.97;;;30.00;;
12373;SDS011;6251;51.762;8.660;2024-02-28T07:23:47;88.43;;;31.67;;
12373;SDS011;6251;51.762;8.660;2024-02-28T07:33:48;92.10;;;32.17;;
12373;SDS011;6251;51.762;8.660;2024-02-28T07:43:49;102.43;;;31.57;;
12373;SDS011;6251;51.762;8.660;2024-02-28T07:53:49;82.93;;;29.13;;
12373;SDS011;6251;51.762;8.660;2024-02-28T08:03:50;82.60;;;31.03;;
12373;SDS011;6251;51.762;8.660;2024-02-28T08:13:50;86.78;;;28.25;;
12373;SDS011;6251;51.762;8.660;2024-02-28T08:23:52;89.57;;;29.07;;
12373;SDS011;6251;51.762;8.660;2024-02-28T08:33:52;107.90;;;34.33;;
12373;SDS011;6251;51.762;8.660;2024-02-28T08:43:53;92.57;;;31.83;;
12373;SDS011;6251;51.762;8.660;2024-02-28T08:53:53;98.77;;;32.23;;
12373;SDS011;6251;51.762;8.660;2024-02-28T09:03:55;77.63;;;30.90;;
12373;SDS011;6251;51.762;8.660;2024-02-28T09:13:56;83.43;;;30.87;;
12373;SDS011;6251;51.762;8.660;2024-02-28T09:23:56;76.82;;;31.60;;
12373;SDS011;6251;51.762;8.660;2024-02-28T09:33:57;99.35;;;36.40;;
12373;SDS011;6251;51.762;8.660;2024-02-28T09:43:58;98.90;;;37.80;;
12373;SDS011;6251;51.762;8.660;2024-02-28T09:54:03;87.32;;;36.13;;
12373;SDS011;6251;51.762;8.660;2024-02-28T10:04:05;86.15;;;36.63;;
12373;SDS011;6251;51.762;8.660;2024-02-28T10:14:06;86.15;;;35.38;;
12373;SDS011;6251;51.762;8.660;2024-02-28T10:24:07;92.68;;;36.10;;
12373;SDS011;6251;51.762;8.660;2024-02-28T10:34:07;89.70;;;36.88;;
12373;SDS011;6251;51.762;8.660;2024-02-28T10:44:09;84.60;;;35.55;;
12373;SDS011;6251;51.762;8.660;2024-02-28T10:54:13;88.32;;;36.50;;
12373;SDS011;6251;51.762;8.660;2024-02-28T11:04:17;90.15;;;35.25;;
12373;SDS011;6251;51.762;8.660;2024-02-28T11:14:18;83.12;;;35.45;;
12373;SDS011;6251;51.762;8.660;2024-02-28T11:24:25;80.05;;;36.80;;
12373;SDS011;6251;51.762;8.660;2024-02-28T11:34:29;83.43;;;38.05;;
12373;SDS011;6251;51.762;8.660;2024-02-28T11:44:30;75.47;;;36.05;;
12373;SDS011;6251;51.762;8.660;2024-02-28T11:54:31;75.53;;;36.42;;
12373;SDS011;6251;51.762;8.660;2024-02-28T12:04:32;71.05;;;36.15;;
12373;SDS011;6251;51.762;8.660;2024-02-28T12:14:36;59.95;;;32.95;;
12373;SDS011;6251;51.762;8.660;2024-02-28T12:24:42;69.25;;;35.00;;
12373;SDS011;6251;51.762;8.660;2024-02-28T12:34:42;64.72;;;34.50;;
12373;SDS011;6251;51.762;8.660;2024-02-28T12:44:43;57.90;;;32.78;;
12373;SDS011;6251;51.762;8.660;2024-02-28T12:54:47;52.58;;;31.80;;
12373;SDS011;6251;51.762;8.660;2024-02-28T13:04:48;56.13;;;31.10;;
12373;SDS011;6251;51.762;8.660;2024-02-28T13:14:51;51.50;;;29.92;;
12373;SDS011;6251;51.762;8.660;2024-02-28T13:24:52;51.95;;;30.52;;
12373;SDS011;6251;51.762;8.660;2024-02-28T13:34:52;45.97;;;28.25;;
12373;SDS011;6251;51.762;8.660;2024-02-28T13:44:53;46.65;;;26.45;;
12373;SDS011;6251;51.762;8.660;2024-02-28T13:54:54;44.83;;;26.25;;
12373;SDS011;6251;51.762;8.660;2024-02-28T14:04:54;46.78;;;26.90;;
12373;SDS011;6251;51.762;8.660;2024-02-28T14:14:55;44.97;;;25.37;;
12373;SDS011;6251;51.762;8.660;2024-02-28T14:24:56;43.22;;;25.77;;
12373;SDS011;6251;51.762;8.660;2024-02-28T14:34:56;43.63;;;26.55;;
12373;SDS011;6251;51.762;8.660;2024-02-28T14:44:57;39.72;;;24.35;;
12373;SDS011;6251;51.762;8.660;2024-02-28T14:54:57;40.50;;;24.15;;
12373;SDS011;6251;51.762;8.660;2024-02-28T15:04:58;38.90;;;23.75;;
12373;SDS011;6251;51.762;8.660;2024-02-28T15:15:00;40.53;;;24.33;;
12373;SDS011;6251;51.762;8.660;2024-02-28T15:25:04;34.72;;;22.48;;
12373;SDS011;6251;51.762;8.660;2024-02-28T15:35:07;39.33;;;24.42;;
12373;SDS011;6251;51.762;8.660;2024-02-28T15:45:08;43.85;;;25.70;;
12373;SDS011;6251;51.762;8.660;2024-02-28T15:55:12;42.03;;;26.17;;
12373;SDS011;6251;51.762;8.660;2024-02-28T16:05:13;44.95;;;27.27;;
12373;SDS011;6251;51.762;8.660;2024-02-28T16:15:14;42.28;;;25.52;;
12373;SDS011;6251;51.762;8.660;2024-02-28T16:25:15;44.42;;;27.13;;
12373;SDS011;6251;51.762;8.660;2024-02-28T16:35:15;49.70;;;30.15;;
12373;SDS011;6251;51.762;8.660;2024-02-28T16:45:16;47.83;;;28.12;;
12373;SDS011;6251;51.762;8.660;2024-02-28T16:55:17;46.35;;;27.27;;
12373;SDS011;6251;51.762;8.660;2024-02-28T17:05:18;52.35;;;29.50;;
12373;SDS011;6251;51.762;8.660;2024-02-28T17:15:18;56.05;;;31.73;;
12373;SDS011;6251;51.762;8.660;2024-02-28T17:25:19;58.10;;;33.95;;
12373;SDS011;6251;51.762;8.660;2024-02-28T17:35:20;65.22;;;34.75;;
12373;SDS011;6251;51.762;8.660;2024-02-28T17:45:21;62.38;;;35.10;;
12373;SDS011;6251;51.762;8.660;2024-02-28T17:55:21;73.85;;;40.85;;
12373;SDS011;6251;51.762;8.660;2024-02-28T18:05:22;65.85;;;36.63;;
12373;SDS011;6251;51.762;8.660;2024-02-28T18:15:24;66.70;;;36.58;;
12373;SDS011;6251;51.762;8.660;2024-02-28T18:25:24;62.05;;;37.15;;
12373;SDS011;6251;51.762;8.660;2024-02-28T18:35:25;63.33;;;35.83;;
12373;SDS011;6251;51.762;8.660;2024-02-28T18:45:27;72.83;;;43.60;;
12373;SDS011;6251;51.762;8.660;2024-02-28T18:55:28;55.12;;;32.90;;
12373;SDS011;6251;51.762;8.660;2024-02-28T19:05:29;68.40;;;37.95;;
12373;SDS011;6251;51.762;8.660;2024-02-28T19:15:30;66.25;;;36.63;;
12373;SDS011;6251;51.762;8.660;2024-02-28T19:25:30;68.87;;;38.88;;
12373;SDS011;6251;51.762;8.660;2024-02-28T19:35:31;70.05;;;41.95;;
12373;SDS011;6251;51.762;8.660;2024-02-28T19:45:32;74.97;;;40.78;;
12373;SDS011;6251;51.762;8.660;2024-02-28T19:55:32;67.05;;;37.70;;
12373;SDS011;6251;51.762;8.660;2024-02-28T20:05:33;70.82;;;37.10;;
12373;SDS011;6251;51.762;8.660;2024-02-28T20:15:34;69.18;;;38.08;;
12373;SDS011;6251;51.762;8.660;2024-02-28T20:25:35;65.97;;;36.33;;
12373;SDS011;6251;51.762;8.660;2024-02-28T20:35:36;60.30;;;34.10;;
12373;SDS011;6251;51.762;8.660;2024-02-28T20:45:36;58.35;;;31.90;;
12373;SDS011;6251;51.762;8.660;2024-02-28T20:55:38;47.72;;;28.65;;
12373;SDS011;6251;51.762;8.660;2024-02-28T21:05:38;49.88;;;29.50;;
12373;SDS011;6251;51.762;8.660;2024-02-28T21:15:39;47.60;;;27.40;;
12373;SDS011;6251;51.762;8.660;2024-02-28T21:25:39;46.28;;;25.95;;
12373;SDS011;6251;51.762;8.660;2024-02-28T21:35:40;41.08;;;24.75;;
12373;SDS011;6251;51.762;8.660;2024-02-28T21:45:42;43.00;;;24.73;;
12373;SDS011;6251;51.762;8.660;2024-02-28T21:55:43;39.63;;;22.62;;
